Huvudsida
METAR-TAF:

METAR-TAF

Flygplatser :

Palma de Mallorcas flygplats

Palma de Mallorca, Spanien

latitud: 39-33N, longitud: 002-44E, höjd: 4 m

Aktuellt väderrapport

Denna rapport gjordes för 18 minuter sedan, klockan 20:30 UTC
Stilla vind
Temperatur 15°C
Fuktighet 88%
Tryck 1018 hPa
Sikt 10 km eller mer
Få moln på en höjd av 1500 ft

METAR: LEPA 162030Z 00000KT 9999 FEW015 15/13 Q1018 NOSIG

Tid: 21:48 (20:48 UTC)

Väderprognos

Denna rapport gjordes för 3 timmar och 48 minuter sedan, klockan 17:00 UTC
Prognos gäller från 16 kl. 18 UTC till 17 kl. 18 UTC
Vind 8 kt från nordost
Sikt 10 km eller mer
Spridda moln på en höjd av 2000 ft

TAF: LEPA 161700Z 1618/1718 04008KT 9999 SCT020 TX19/1712Z TN10/1706Z

Aktuella väderrapporter och prognoser från 4000 flygplatser (METAR- och TAF-rapporter).

De tillgängliga stationerna syns som gula och röda prickar på kartan.

För musen över prickarna för att se namnen på stationerna.

Klicka sedan för att få väderrapporter och prognoser.

För att ändra kartan: Klicka på de gröna knapparna med ett svart kors på för att zooma in; den gröna knappen med ett streck på för att zooma ut; eller på de gröna pilarna för angränsande kartor.


METAR-TAF: